createdAt,value
2022-08-28T00:01:40.107Z,101196.69
2022-08-28T00:04:06.819Z,101199.41
2022-08-28T00:06:33.774Z,101201.06
2022-08-28T00:09:00.453Z,101187.38
2022-08-28T00:11:27.074Z,101196.97
2022-08-28T00:13:53.757Z,101201.22
2022-08-28T00:16:23.548Z,101203.94
2022-08-28T00:18:53.243Z,101204.88
2022-08-28T00:21:20.004Z,101207.84
2022-08-28T00:23:46.677Z,101202.94
2022-08-28T00:26:33.336Z,101206.53
2022-08-28T00:29:00.018Z,101199.56
2022-08-28T00:31:27.012Z,101208.44
2022-08-28T00:33:53.702Z,101205.97
2022-08-28T00:36:20.466Z,101207.28
2022-08-28T00:38:47.144Z,101207.84
2022-08-28T00:41:13.973Z,101210.84
2022-08-28T00:43:47.894Z,101211.22
2022-08-28T00:46:21.338Z,101213.78
2022-08-28T00:48:48.818Z,101213.50
2022-08-28T00:51:38.530Z,101210.69
2022-08-28T00:54:07.871Z,101208.34
2022-08-28T00:56:36.224Z,101202.00
2022-08-28T00:59:14.677Z,101209.91
2022-08-28T01:01:43.417Z,101206.06
2022-08-28T01:04:16.759Z,101209.91
2022-08-28T01:06:46.760Z,101207.75
2022-08-28T01:09:15.124Z,101205.88
2022-08-28T01:11:50.221Z,101209.50
2022-08-28T01:14:20.305Z,101202.00
2022-08-28T01:16:52.782Z,101210.66
2022-08-28T01:19:26.797Z,101201.53
2022-08-28T01:22:06.638Z,101213.41
2022-08-28T01:24:35.923Z,101208.66
2022-08-28T01:27:02.646Z,101204.38
2022-08-28T01:29:29.698Z,101210.09
2022-08-28T01:31:56.415Z,101221.13
2022-08-28T01:34:23.430Z,101216.75
2022-08-28T01:36:50.196Z,101216.28
2022-08-28T01:39:20.974Z,101215.44
2022-08-28T01:41:51.855Z,101222.78
2022-08-28T01:44:24.825Z,101228.91
2022-08-28T01:46:53.762Z,101220.09
2022-08-28T01:49:21.723Z,101215.00
2022-08-28T01:51:48.506Z,101226.16
2022-08-28T01:54:17.966Z,101221.34
2022-08-28T01:56:45.010Z,101225.47
2022-08-28T01:59:14.187Z,101229.72
2022-08-28T02:01:42.561Z,101229.53
2022-08-28T02:04:10.632Z,101224.63
2022-08-28T02:06:38.015Z,101226.75
2022-08-28T02:09:06.358Z,101233.56
2022-08-28T02:11:41.450Z,101229.41
2022-08-28T02:14:12.118Z,101233.25
2022-08-28T02:16:38.854Z,101234.53
2022-08-28T02:19:06.209Z,101231.69
2022-08-28T02:21:32.874Z,101233.19
2022-08-28T02:23:59.947Z,101234.00
2022-08-28T02:26:26.799Z,101233.34
2022-08-28T02:28:53.471Z,101236.47
2022-08-28T02:31:20.330Z,101232.41
2022-08-28T02:33:47.391Z,101231.72
2022-08-28T02:36:16.191Z,101234.50
2022-08-28T02:38:44.674Z,101230.34
2022-08-28T02:41:12.333Z,101219.75
2022-08-28T02:43:39.465Z,101225.25
2022-08-28T02:46:06.988Z,101224.34
2022-08-28T02:48:38.105Z,101226.88
2022-08-28T02:51:09.116Z,101235.09
2022-08-28T02:53:36.655Z,101226.44
2022-08-28T02:56:04.836Z,101229.41
2022-08-28T02:58:32.935Z,101224.13
2022-08-28T03:01:01.796Z,101226.28
2022-08-28T03:03:31.588Z,101229.00
2022-08-28T03:06:00.723Z,101234.00
2022-08-28T03:08:28.316Z,101228.47
2022-08-28T03:10:55.067Z,101229.41
2022-08-28T03:13:26.524Z,101235.25
2022-08-28T03:15:55.758Z,101228.22
2022-08-28T03:18:24.504Z,101228.72
2022-08-28T03:20:52.514Z,101235.75
2022-08-28T03:23:28.221Z,101227.00
2022-08-28T03:26:03.968Z,101236.53
2022-08-28T03:28:39.107Z,101235.94
2022-08-28T03:31:07.489Z,101235.72
2022-08-28T03:33:34.940Z,101237.31
2022-08-28T03:36:01.685Z,101234.84
2022-08-28T03:38:31.607Z,101234.31
2022-08-28T03:40:58.239Z,101231.28
2022-08-28T03:43:25.492Z,101229.06
2022-08-28T03:46:04.095Z,101234.00
2022-08-28T03:48:35.978Z,101231.09
2022-08-28T03:51:10.889Z,101228.03
2022-08-28T03:53:38.293Z,101237.31
2022-08-28T03:56:12.140Z,101230.09
2022-08-28T03:58:40.903Z,101230.34
2022-08-28T04:01:08.217Z,101239.03
2022-08-28T04:03:35.421Z,101234.84
2022-08-28T04:06:02.661Z,101232.03
2022-08-28T04:08:30.161Z,101231.34
2022-08-28T04:10:56.977Z,101236.13
2022-08-28T04:13:23.712Z,101237.72
2022-08-28T04:16:02.713Z,101235.00
2022-08-28T04:18:33.288Z,101235.91
2022-08-28T04:21:07.895Z,101231.44
2022-08-28T04:23:36.083Z,101238.59
2022-08-28T04:26:06.086Z,101242.69
2022-08-28T04:28:33.449Z,101233.31
2022-08-28T04:31:00.153Z,101246.59
2022-08-28T04:33:28.304Z,101236.75
2022-08-28T04:35:55.980Z,101241.72
2022-08-28T04:38:23.422Z,101233.41
2022-08-28T04:40:50.068Z,101237.59
2022-08-28T04:43:16.757Z,101239.38
2022-08-28T04:45:45.402Z,101240.13
2022-08-28T04:48:13.877Z,101244.00
2022-08-28T04:50:45.119Z,101237.91
2022-08-28T04:53:13.540Z,101235.63
2022-08-28T04:55:54.600Z,101243.41
2022-08-28T04:58:24.256Z,101242.69
2022-08-28T05:00:52.270Z,101244.09
2022-08-28T05:03:18.986Z,101244.22
2022-08-28T05:05:48.743Z,101244.88
2022-08-28T05:08:17.100Z,101246.41
2022-08-28T05:10:43.916Z,101241.81
2022-08-28T05:13:11.654Z,101247.75
2022-08-28T05:15:40.235Z,101258.16
2022-08-28T05:18:07.331Z,101254.72
2022-08-28T05:20:38.886Z,101250.25
2022-08-28T05:23:07.530Z,101257.63
2022-08-28T05:25:36.379Z,101248.94
2022-08-28T05:28:03.603Z,101254.97
2022-08-28T05:30:30.240Z,101257.94
2022-08-28T05:32:57.062Z,101262.16
2022-08-28T05:35:24.924Z,101257.13
2022-08-28T05:37:52.666Z,101254.28
2022-08-28T05:40:23.459Z,101258.06
2022-08-28T05:42:50.866Z,101252.94
2022-08-28T05:45:18.011Z,101264.25
2022-08-28T05:47:45.170Z,101255.53
2022-08-28T05:50:15.147Z,101258.31
2022-08-28T05:52:42.932Z,101253.69
2022-08-28T05:55:12.094Z,101258.25
2022-08-28T05:57:40.009Z,101251.34
2022-08-28T06:00:10.674Z,101251.34
2022-08-28T06:02:37.288Z,101252.34
2022-08-28T06:05:04.362Z,101253.72
2022-08-28T06:07:30.990Z,101249.91
2022-08-28T06:09:57.708Z,101261.59
2022-08-28T06:12:24.528Z,101258.63
2022-08-28T06:14:51.354Z,101264.13
2022-08-28T06:17:23.473Z,101264.22
2022-08-28T06:19:50.512Z,101264.09
2022-08-28T06:22:18.412Z,101267.09
2022-08-28T06:24:45.113Z,101262.28
2022-08-28T06:27:11.774Z,101267.44
2022-08-28T06:29:39.842Z,101267.72
2022-08-28T06:32:06.602Z,101267.28
2022-08-28T06:34:34.350Z,101276.53
2022-08-28T06:37:01.146Z,101265.78
2022-08-28T06:39:27.877Z,101277.72
2022-08-28T06:41:54.769Z,101282.91
2022-08-28T06:44:22.157Z,101274.56
2022-08-28T06:46:51.213Z,101276.09
2022-08-28T06:49:18.494Z,101276.44
2022-08-28T06:51:45.220Z,101274.81
2022-08-28T06:54:12.241Z,101275.88
2022-08-28T06:56:39.032Z,101270.47
2022-08-28T06:59:05.800Z,101275.31
2022-08-28T07:01:35.300Z,101278.53
2022-08-28T07:04:05.995Z,101276.44
2022-08-28T07:06:35.581Z,101279.88
2022-08-28T07:09:05.155Z,101275.66
2022-08-28T07:11:33.699Z,101282.50
2022-08-28T07:14:01.278Z,101287.19
2022-08-28T07:16:31.372Z,101287.25
2022-08-28T07:18:58.626Z,101288.78
2022-08-28T07:21:26.512Z,101291.19
2022-08-28T07:23:53.712Z,101284.44
2022-08-28T07:26:23.510Z,101287.28
2022-08-28T07:28:52.441Z,101290.28
2022-08-28T07:31:27.589Z,101292.53
2022-08-28T07:33:56.102Z,101295.03
2022-08-28T07:36:29.276Z,101297.47
2022-08-28T07:38:58.983Z,101294.34
2022-08-28T07:41:29.943Z,101297.31
2022-08-28T07:44:15.534Z,101292.22
2022-08-28T07:46:43.209Z,101297.00
2022-08-28T07:49:11.459Z,101301.03
2022-08-28T07:51:38.272Z,101298.88
2022-08-28T07:54:05.396Z,101301.91
2022-08-28T07:56:33.188Z,101301.56
2022-08-28T07:59:01.323Z,101302.72
2022-08-28T08:01:30.701Z,101309.97
2022-08-28T08:04:01.700Z,101309.81
2022-08-28T08:06:34.169Z,101308.44
2022-08-28T08:09:02.313Z,101309.84
2022-08-28T08:11:31.076Z,101320.97
2022-08-28T08:14:04.714Z,101317.47
2022-08-28T08:16:35.625Z,101305.09
2022-08-28T08:19:03.432Z,101312.63
2022-08-28T08:21:30.854Z,101307.56
2022-08-28T08:23:58.359Z,101317.59
2022-08-28T08:26:29.804Z,101313.47
2022-08-28T08:28:56.870Z,101306.59
2022-08-28T08:31:29.748Z,101330.22
2022-08-28T08:33:58.775Z,101323.84
2022-08-28T08:36:26.876Z,101324.84
2022-08-28T08:38:59.529Z,101324.19
2022-08-28T08:41:43.613Z,101321.28
2022-08-28T08:44:21.235Z,101319.00
2022-08-28T08:47:14.186Z,101320.81
2022-08-28T08:50:02.651Z,101330.97
2022-08-28T08:52:37.230Z,101328.91
2022-08-28T08:55:12.532Z,101324.88
2022-08-28T08:57:42.617Z,101317.13
2022-08-28T09:00:16.108Z,101318.53
2022-08-28T09:03:03.009Z,101318.16
2022-08-28T09:05:44.050Z,101314.00
2022-08-28T09:08:26.147Z,101314.34
2022-08-28T09:11:16.489Z,101319.69
2022-08-28T09:14:01.258Z,101314.13
2022-08-28T09:16:41.166Z,101319.63
2022-08-28T09:19:10.808Z,101315.16
2022-08-28T09:21:41.481Z,101320.06
2022-08-28T09:24:34.098Z,101326.59
2022-08-28T09:27:31.963Z,101326.06
2022-08-28T09:29:59.929Z,101310.25
2022-08-28T09:32:34.499Z,101325.22
2022-08-28T09:35:19.563Z,101312.25
2022-08-28T09:37:46.255Z,101321.66
2022-08-28T09:40:57.839Z,101326.53
2022-08-28T09:43:27.841Z,101328.22
2022-08-28T09:46:03.240Z,101317.41
2022-08-28T09:48:39.151Z,101321.59
2022-08-28T09:51:24.573Z,101331.59
2022-08-28T09:53:51.117Z,101320.22
2022-08-28T09:56:36.433Z,101323.25
2022-08-28T09:59:06.580Z,101307.88
2022-08-28T10:01:39.641Z,101314.88
2022-08-28T10:04:16.761Z,101312.09
2022-08-28T10:06:56.832Z,101303.25
2022-08-28T10:09:38.895Z,101311.16
2022-08-28T10:12:38.242Z,101324.78
2022-08-28T10:15:19.299Z,101324.41
2022-08-28T10:17:54.953Z,101322.72
2022-08-28T10:20:58.858Z,101322.88
2022-08-28T10:23:37.217Z,101315.56
2022-08-28T10:26:22.267Z,101320.66
2022-08-28T10:29:15.345Z,101312.88
2022-08-28T10:32:01.449Z,101308.75
2022-08-28T10:34:28.015Z,101298.63
2022-08-28T10:37:23.792Z,101327.66
2022-08-28T10:39:59.441Z,101312.34
2022-08-28T10:42:36.227Z,101315.72
2022-08-28T10:45:07.124Z,101326.59
2022-08-28T10:47:38.353Z,101320.66
2022-08-28T10:50:11.961Z,101332.53
2022-08-28T10:52:55.396Z,101327.72
2022-08-28T10:55:26.747Z,101338.63
2022-08-28T10:57:58.561Z,101334.28
2022-08-28T11:00:28.539Z,101339.91
2022-08-28T11:03:22.180Z,101335.38
2022-08-28T11:06:08.360Z,101336.63
2022-08-28T11:08:38.224Z,101336.00
2022-08-28T11:11:07.475Z,101342.41
2022-08-28T11:13:43.361Z,101348.28
2022-08-28T11:16:23.281Z,101341.94
2022-08-28T11:19:08.535Z,101345.94
2022-08-28T11:21:47.354Z,101345.13
2022-08-28T11:24:39.631Z,101347.06
2022-08-28T11:27:35.070Z,101346.09
2022-08-28T11:30:07.944Z,101351.59
2022-08-28T11:32:34.530Z,101355.75
2022-08-28T11:35:05.669Z,101348.63
2022-08-28T11:37:44.597Z,101351.13
2022-08-28T11:40:17.360Z,101356.13
2022-08-28T11:42:48.643Z,101359.66
2022-08-28T11:45:42.670Z,101359.88
2022-08-28T11:48:22.718Z,101356.97
2022-08-28T11:51:21.529Z,101353.13
2022-08-28T11:53:54.105Z,101352.38
2022-08-28T11:56:31.403Z,101351.53
2022-08-28T11:59:17.760Z,101350.41
2022-08-28T12:01:44.547Z,101353.63
2022-08-28T12:04:21.474Z,101365.13
2022-08-28T12:06:54.393Z,101358.41
2022-08-28T12:09:43.501Z,101355.81
2022-08-28T12:12:33.227Z,101356.50
2022-08-28T12:15:02.956Z,101355.63
2022-08-28T12:17:46.508Z,101359.53
2022-08-28T12:20:28.273Z,101355.09
2022-08-28T12:23:01.523Z,101356.22
2022-08-28T12:25:44.134Z,101349.13
2022-08-28T12:28:27.837Z,101356.72
2022-08-28T12:31:06.937Z,101354.78
2022-08-28T12:33:52.684Z,101352.84
2022-08-28T12:36:28.603Z,101353.34
2022-08-28T12:39:00.426Z,101346.38
2022-08-28T12:41:27.774Z,101356.47
2022-08-28T12:43:58.381Z,101342.91
2022-08-28T12:46:30.769Z,101350.56
2022-08-28T12:49:00.577Z,101347.44
2022-08-28T12:51:30.449Z,101346.53
2022-08-28T12:54:03.209Z,101352.00
2022-08-28T12:56:36.227Z,101346.09
2022-08-28T12:59:22.512Z,101343.50
2022-08-28T13:01:54.490Z,101346.94
2022-08-28T13:04:32.770Z,101345.19
2022-08-28T13:07:08.062Z,101344.50
2022-08-28T13:09:34.891Z,101347.69
2022-08-28T13:12:01.720Z,101331.72
2022-08-28T13:14:37.259Z,101340.91
2022-08-28T13:17:04.432Z,101330.03
2022-08-28T13:19:32.530Z,101338.66
2022-08-28T13:22:02.898Z,101332.59
2022-08-28T13:24:35.374Z,101332.78
2022-08-28T13:27:13.891Z,101336.44
2022-08-28T13:29:55.648Z,101343.72
2022-08-28T13:32:28.872Z,101338.44
2022-08-28T13:35:10.698Z,101335.47
2022-08-28T13:37:40.150Z,101334.81
2022-08-28T13:40:16.000Z,101339.63
2022-08-28T13:42:59.322Z,101339.50
2022-08-28T13:45:26.040Z,101339.53
2022-08-28T13:47:52.683Z,101344.88
2022-08-28T13:50:19.434Z,101336.47
2022-08-28T13:52:46.075Z,101342.38
2022-08-28T13:55:13.478Z,101345.72
2022-08-28T13:57:40.140Z,101340.72
2022-08-28T14:00:07.346Z,101339.84
2022-08-28T14:02:53.490Z,101343.44
2022-08-28T14:05:20.576Z,101354.72
2022-08-28T14:07:47.301Z,101345.31
2022-08-28T14:10:13.920Z,101348.06
2022-08-28T14:12:43.145Z,101349.66
2022-08-28T14:15:10.232Z,101349.66
2022-08-28T14:17:36.862Z,101342.78
2022-08-28T14:20:03.986Z,101341.94
2022-08-28T14:22:31.054Z,101348.00
2022-08-28T14:24:57.766Z,101344.56
2022-08-28T14:27:24.355Z,101341.56
2022-08-28T14:29:51.051Z,101345.41
2022-08-28T14:32:17.762Z,101338.56
2022-08-28T14:34:46.837Z,101343.72
2022-08-28T14:37:14.279Z,101338.53
2022-08-28T14:39:42.676Z,101342.16
2022-08-28T14:42:11.827Z,101335.91
2022-08-28T14:44:40.011Z,101337.03
2022-08-28T14:47:07.309Z,101337.44
2022-08-28T14:49:34.043Z,101337.00
2022-08-28T14:52:01.010Z,101339.28
2022-08-28T14:54:27.748Z,101333.94
2022-08-28T14:56:55.517Z,101335.34
2022-08-28T14:59:25.817Z,101335.66
2022-08-28T15:01:55.240Z,101330.31
2022-08-28T15:04:24.116Z,101330.44
2022-08-28T15:06:56.953Z,101336.84
2022-08-28T15:09:24.025Z,101336.19
2022-08-28T15:11:50.621Z,101343.66
2022-08-28T15:14:17.577Z,101344.31
2022-08-28T15:16:46.434Z,101347.50
2022-08-28T15:19:17.696Z,101349.81
2022-08-28T15:21:55.361Z,101346.81
2022-08-28T15:24:29.965Z,101354.94
2022-08-28T15:26:57.653Z,101355.47
2022-08-28T15:29:24.592Z,101352.59
2022-08-28T15:31:52.755Z,101348.75
2022-08-28T15:34:23.147Z,101363.91
2022-08-28T15:36:55.657Z,101352.75
2022-08-28T15:39:46.885Z,101355.50
2022-08-28T15:42:14.266Z,101357.38
2022-08-28T15:44:41.127Z,101353.84
2022-08-28T15:47:08.467Z,101353.41
2022-08-28T15:49:38.936Z,101358.13
2022-08-28T15:52:15.737Z,101356.34
2022-08-28T15:54:43.044Z,101355.69
2022-08-28T15:57:09.734Z,101355.03
2022-08-28T15:59:48.276Z,101344.16
2022-08-28T16:02:16.108Z,101350.22
2022-08-28T16:04:42.799Z,101349.22
2022-08-28T16:07:09.523Z,101352.59
2022-08-28T16:09:36.226Z,101347.34
2022-08-28T16:12:03.144Z,101357.47
2022-08-28T16:14:32.767Z,101356.59
2022-08-28T16:16:59.590Z,101355.97
2022-08-28T16:19:32.798Z,101357.31
2022-08-28T16:21:59.520Z,101352.53
2022-08-28T16:24:26.198Z,101355.09
2022-08-28T16:26:52.855Z,101365.13
2022-08-28T16:29:19.715Z,101363.41
2022-08-28T16:31:48.734Z,101374.19
2022-08-28T16:34:15.719Z,101358.97
2022-08-28T16:36:48.286Z,101364.41
2022-08-28T16:39:15.204Z,101368.94
2022-08-28T16:41:43.149Z,101371.75
2022-08-28T16:44:09.901Z,101371.56
2022-08-28T16:46:36.616Z,101379.72
2022-08-28T16:49:03.788Z,101379.50
2022-08-28T16:51:30.474Z,101366.63
2022-08-28T16:53:57.405Z,101372.03
2022-08-28T16:56:25.013Z,101371.41
2022-08-28T16:58:53.296Z,101374.19
2022-08-28T17:01:23.860Z,101374.47
2022-08-28T17:03:55.091Z,101376.09
2022-08-28T17:06:25.213Z,101371.69
2022-08-28T17:08:56.632Z,101376.00
2022-08-28T17:11:25.869Z,101364.06
2022-08-28T17:13:52.875Z,101379.94
2022-08-28T17:16:21.827Z,101370.97
2022-08-28T17:18:52.525Z,101373.03
2022-08-28T17:21:39.172Z,101378.09
2022-08-28T17:24:06.822Z,101368.94
2022-08-28T17:26:33.882Z,101373.03
2022-08-28T17:29:00.762Z,101378.56
2022-08-28T17:31:27.505Z,101375.91
2022-08-28T17:33:54.364Z,101374.19
2022-08-28T17:36:32.549Z,101370.88
2022-08-28T17:39:02.110Z,101374.22
2022-08-28T17:41:28.755Z,101369.03
2022-08-28T17:43:55.474Z,101373.56
2022-08-28T17:46:22.615Z,101378.00
2022-08-28T17:48:54.341Z,101380.66
2022-08-28T17:51:43.026Z,101382.72
2022-08-28T17:54:16.802Z,101380.00
2022-08-28T17:56:43.789Z,101389.84
2022-08-28T17:59:11.541Z,101393.44
2022-08-28T18:01:41.752Z,101394.44
2022-08-28T18:04:09.030Z,101395.63
2022-08-28T18:06:35.866Z,101400.63
2022-08-28T18:09:03.986Z,101398.59
2022-08-28T18:11:30.651Z,101393.41
2022-08-28T18:13:57.659Z,101399.31
2022-08-28T18:16:28.906Z,101402.59
2022-08-28T18:18:57.922Z,101404.00
2022-08-28T18:21:24.858Z,101405.31
2022-08-28T18:23:51.599Z,101408.59
2022-08-28T18:26:18.430Z,101414.66
2022-08-28T18:28:45.097Z,101419.59
2022-08-28T18:31:11.837Z,101423.56
2022-08-28T18:33:38.660Z,101420.06
2022-08-28T18:36:10.844Z,101422.00
2022-08-28T18:38:37.551Z,101415.25
2022-08-28T18:41:05.899Z,101417.06
2022-08-28T18:43:32.943Z,101417.91
2022-08-28T18:46:00.715Z,101427.50
2022-08-28T18:48:27.532Z,101426.59
2022-08-28T18:50:54.833Z,101426.84
2022-08-28T18:53:22.919Z,101425.34
2022-08-28T18:55:51.155Z,101421.97
2022-08-28T18:58:20.166Z,101417.91
2022-08-28T19:00:46.997Z,101421.53
2022-08-28T19:03:13.808Z,101424.69
2022-08-28T19:05:41.441Z,101433.50
2022-08-28T19:08:08.229Z,101435.50
2022-08-28T19:10:36.955Z,101432.06
2022-08-28T19:13:05.044Z,101433.31
2022-08-28T19:15:33.053Z,101433.03
2022-08-28T19:18:01.360Z,101432.63
2022-08-28T19:20:29.097Z,101436.41
2022-08-28T19:22:56.794Z,101430.38
2022-08-28T19:25:27.815Z,101427.31
2022-08-28T19:28:00.168Z,101425.38
2022-08-28T19:30:30.302Z,101430.69
2022-08-28T19:32:57.106Z,101421.63
2022-08-28T19:35:24.816Z,101431.88
2022-08-28T19:37:55.441Z,101424.72
2022-08-28T19:40:23.798Z,101431.22
2022-08-28T19:42:51.354Z,101430.47
2022-08-28T19:45:18.938Z,101439.38
2022-08-28T19:47:47.027Z,101446.19
2022-08-28T19:50:14.482Z,101447.88
2022-08-28T19:52:43.233Z,101442.03
2022-08-28T19:55:24.367Z,101442.25
2022-08-28T19:57:51.288Z,101444.00
2022-08-28T20:00:20.973Z,101440.53
2022-08-28T20:02:48.653Z,101437.72
2022-08-28T20:05:15.734Z,101437.53
2022-08-28T20:07:42.582Z,101435.97
2022-08-28T20:10:11.583Z,101437.91
2022-08-28T20:12:38.591Z,101443.66
2022-08-28T20:15:09.460Z,101439.50
2022-08-28T20:17:43.904Z,101443.34
2022-08-28T20:20:19.210Z,101445.38
2022-08-28T20:22:46.184Z,101435.47
2022-08-28T20:25:14.864Z,101431.44
2022-08-28T20:27:41.580Z,101431.22
2022-08-28T20:30:10.521Z,101434.19
2022-08-28T20:32:40.989Z,101431.41
2022-08-28T20:35:10.730Z,101431.66
2022-08-28T20:37:44.657Z,101437.66
2022-08-28T20:40:14.619Z,101425.34
2022-08-28T20:42:41.418Z,101424.66
2022-08-28T20:45:09.143Z,101432.72
2022-08-28T20:47:35.928Z,101429.06
2022-08-28T20:50:02.694Z,101433.34
2022-08-28T20:52:29.535Z,101439.50
2022-08-28T20:54:58.074Z,101429.72
2022-08-28T20:57:25.149Z,101430.31
2022-08-28T20:59:52.347Z,101436.97
2022-08-28T21:02:27.870Z,101442.38
2022-08-28T21:04:55.533Z,101436.63
2022-08-28T21:07:25.390Z,101438.41
2022-08-28T21:10:06.301Z,101436.34
2022-08-28T21:12:36.063Z,101437.81
2022-08-28T21:15:02.931Z,101432.13
2022-08-28T21:17:30.679Z,101437.47
2022-08-28T21:20:00.506Z,101433.22
2022-08-28T21:22:29.032Z,101432.72
2022-08-28T21:24:55.786Z,101433.22
2022-08-28T21:27:22.452Z,101439.09
2022-08-28T21:29:49.108Z,101442.06
2022-08-28T21:32:16.725Z,101443.84
2022-08-28T21:34:43.906Z,101448.78
2022-08-28T21:37:10.826Z,101454.59
2022-08-28T21:39:37.670Z,101459.16
2022-08-28T21:42:06.236Z,101452.78
2022-08-28T21:44:33.038Z,101460.38
2022-08-28T21:47:00.259Z,101458.97
2022-08-28T21:49:26.847Z,101459.69
2022-08-28T21:51:53.495Z,101455.63
2022-08-28T21:54:20.260Z,101456.47
2022-08-28T21:56:46.873Z,101451.19
2022-08-28T21:59:17.270Z,101449.75
2022-08-28T22:01:43.965Z,101462.00
2022-08-28T22:04:10.817Z,101453.13
2022-08-28T22:06:37.635Z,101466.47
2022-08-28T22:09:08.554Z,101473.22
2022-08-28T22:11:35.532Z,101476.69
2022-08-28T22:14:05.323Z,101478.97
2022-08-28T22:16:32.033Z,101480.75
2022-08-28T22:18:58.976Z,101478.38
2022-08-28T22:21:45.520Z,101473.81
2022-08-28T22:24:13.277Z,101481.25
2022-08-28T22:26:42.372Z,101478.22
2022-08-28T22:29:10.203Z,101481.66
2022-08-28T22:31:39.674Z,101488.56
2022-08-28T22:34:13.361Z,101476.56
2022-08-28T22:36:40.024Z,101482.88
2022-08-28T22:39:07.031Z,101469.22
2022-08-28T22:41:33.915Z,101475.00
2022-08-28T22:44:00.684Z,101479.13
2022-08-28T22:46:28.310Z,101473.66
2022-08-28T22:48:55.056Z,101478.63
2022-08-28T22:51:22.003Z,101478.34
2022-08-28T22:53:49.108Z,101474.00
2022-08-28T22:56:16.918Z,101469.22
2022-08-28T22:58:44.140Z,101472.13
2022-08-28T23:01:15.767Z,101461.34
2022-08-28T23:03:42.802Z,101468.22
2022-08-28T23:06:09.711Z,101464.63
2022-08-28T23:08:36.552Z,101463.75
2022-08-28T23:11:03.829Z,101463.94
2022-08-28T23:13:31.034Z,101459.47
2022-08-28T23:15:58.412Z,101463.53
2022-08-28T23:18:25.339Z,101466.06
2022-08-28T23:20:52.554Z,101458.34
2022-08-28T23:23:20.097Z,101463.59
2022-08-28T23:25:46.803Z,101452.97
2022-08-28T23:28:13.560Z,101454.38
2022-08-28T23:30:43.968Z,101452.03
2022-08-28T23:33:21.623Z,101452.22
2022-08-28T23:35:51.990Z,101448.56
2022-08-28T23:38:18.930Z,101447.38
2022-08-28T23:40:48.135Z,101443.50
2022-08-28T23:43:15.457Z,101441.00
2022-08-28T23:45:42.971Z,101443.09
2022-08-28T23:48:12.195Z,101434.53
2022-08-28T23:50:41.430Z,101441.72
2022-08-28T23:53:11.814Z,101428.94
2022-08-28T23:55:38.668Z,101435.16
2022-08-28T23:58:05.770Z,101438.50
